TENO2: Tenkiller Lake

Data processed at Sat Sep 16 2017 23:02


All information presented herein is the property of the government of the United States of America and may be revised or deleted at any time without prior notice.
Dissemination of this information without the expressed written consent of the Public Affairs Office, Tulsa District U.S. Army Corps of Engineers is strictly prohibited.
These data are gathered electronically and, as presented, have not undergone any form of quality control. These data are not guaranteed to be valid or correct.
Go to home page.
Go to station list.

Upstream stations:

Downstream station:
Previous Day
Next Day
Current Day
    
SHEF ID:       TENO2     Tenkiller Lake
STATION TYPE:  Reservoir
Normal Pool:  Bottom =   594.50, Top =   632.00

               PRECIP PRECIP(A) ELEVATION   STORAGE   TW-ELEV    INFLOW   RELEASE  AIR-TEMP  WIND-DIRWIND-SPEED REL-HUMID SOLAR-RAD   VOLTAGE  BAT-LOAD
                   in        in        ft     ac-ft        ft       cfs       cfs         F       deg       mph         %      W/m2      volt      volt
              Ccp-Rev   Ccp-Rev   Ccp-Rev   Ccp-Rev   Ccp-Rev  Regi-Rev  Regi-Rev   Ccp-Rev   Ccp-Rev   Ccp-Rev   Ccp-Rev   Ccp-Rev   Ccp-Rev   Ccp-Rev
(US/Central)
09/14 00:00      0.00      0.00    632.76    678623    482.21         2        15    -24.07    182.00      0.35     10.62      1.00     13.78     13.53
09/14 01:00      0.00      0.00    632.76    678623    482.09         0        15    -24.18    179.00      0.38     10.68      0.00     13.78     13.53
09/14 02:00      0.00      0.00    632.76    678623    482.07         0        15    -23.96    182.70      0.38     10.68      1.00     13.78     13.53
09/14 03:00      0.00      0.00    632.76    678623    482.07         0        15    -24.07    190.20      0.39     10.62      0.00     13.78     13.53
09/14 04:00      0.00      0.00    632.76    678623    482.07         0        15    -24.07    174.50      0.36     10.62      0.00     13.78     13.53
09/14 05:00      0.00      0.00    632.75    678486    482.02         0        15    -24.18    174.00      0.37     10.68      0.00     13.78     13.53
09/14 06:00      0.00      0.00    632.76    678623    484.12         0       650    -24.18    167.70      0.35     10.62      0.00     13.77     13.53
09/14 07:00      0.00      0.00    632.75    678486    484.02         0       960    -23.96    167.40      0.36     10.74      0.00     13.77     13.53
09/14 08:00      0.00      0.00    632.75    678486    482.19         0        15    -23.96    173.10      0.37     10.62     33.00     13.76     13.53
09/14 09:00      0.00      0.00    632.75    678486    482.07         0        15    -24.07    127.20      0.39     10.68    220.00     13.77     13.53
09/14 10:00      0.03      0.02    632.76    678623    482.07         0        15    -24.07     97.50      0.20     10.56    399.00     13.77     13.53
09/14 11:00      0.00      0.00    632.75    678486    482.06         0        15    -24.07    102.60      1.28     10.62    560.00     13.77     13.53
09/14 12:00      0.00      0.00    632.76    678623    482.05         0        15    -24.29    123.40      1.15     10.56    695.00     13.77     13.53
09/14 13:00      0.00      0.00    632.76    678623    482.05         0        15    -24.18    215.60      1.93     10.68    766.00     13.78     13.53
09/14 14:00      0.00      0.00    632.75    678486    483.42         0        15    -24.29    175.90      1.21     10.56    780.00     13.78     13.53
09/14 15:00      0.00      0.00    632.74    678349    486.96         0      3000    -24.29    129.80      0.88     10.50    727.00     13.78     13.53
09/14 16:00      0.00      0.00    632.71    677937    487.26         0      3616    -24.39    121.30      1.06     10.50    623.00     13.78     13.53
09/14 17:00      0.00      0.00    632.68    677525    487.35         0      3616    -24.18    100.30      1.74     10.62    470.00     13.78     13.53
09/14 18:00      0.00      0.00    632.67    677388    486.72         0      3616    -24.29    107.70      1.56     10.50    283.00     13.78     13.53
09/14 19:00      0.00      0.00    632.66    677251    483.54         0        15    -23.96    111.20      0.19     10.87     61.00     13.78     13.53
09/14 20:00      0.00      0.00    632.65    677114    483.39         0        15    -23.96    190.30      0.35     10.74      7.00     13.79     13.53
09/14 21:00      0.00      0.00    632.67    677388    483.38         0        15    -24.18    150.60      0.39     10.50      0.00     13.78     13.53
09/14 22:00      0.00      0.00    632.65    677114    483.36         0        15    -24.29    152.60      0.39     10.62      0.00     13.78     13.53
09/14 23:00      0.00      0.00    632.65    677114    483.36         0        15    -24.07    100.00      0.17     10.87      1.00     13.78     13.53